sensor_id;sensor_type;location;lat;lon;timestamp;temperature;humidity
2523;DHT22;1272;53.332;9.860;2022-09-09T00:01:58;14.10;99.90
2523;DHT22;1272;53.332;9.860;2022-09-09T00:04:37;14.10;99.90
2523;DHT22;1272;53.332;9.860;2022-09-09T00:07:30;14.20;99.90
2523;DHT22;1272;53.332;9.860;2022-09-09T00:10:13;14.20;99.90
2523;DHT22;1272;53.332;9.860;2022-09-09T00:15:39;14.20;99.90
2523;DHT22;1272;53.332;9.860;2022-09-09T00:28:45;14.20;99.90
2523;DHT22;1272;53.332;9.860;2022-09-09T00:31:15;14.20;99.90
2523;DHT22;1272;53.332;9.860;2022-09-09T00:33:43;14.20;99.90
2523;DHT22;1272;53.332;9.860;2022-09-09T00:36:14;14.20;99.90
2523;DHT22;1272;53.332;9.860;2022-09-09T00:38:51;14.20;99.90
2523;DHT22;1272;53.332;9.860;2022-09-09T00:41:22;14.10;99.90
2523;DHT22;1272;53.332;9.860;2022-09-09T00:46:54;14.00;99.90
2523;DHT22;1272;53.332;9.860;2022-09-09T00:49:43;14.00;99.90
2523;DHT22;1272;53.332;9.860;2022-09-09T00:55:38;13.90;99.90
2523;DHT22;1272;53.332;9.860;2022-09-09T00:58:09;13.90;99.90
2523;DHT22;1272;53.332;9.860;2022-09-09T01:00:47;13.80;99.90
2523;DHT22;1272;53.332;9.860;2022-09-09T01:03:21;13.80;99.90
2523;DHT22;1272;53.332;9.860;2022-09-09T01:11:26;13.70;99.90
2523;DHT22;1272;53.332;9.860;2022-09-09T01:16:59;13.60;99.90
2523;DHT22;1272;53.332;9.860;2022-09-09T01:19:57;13.60;99.90
2523;DHT22;1272;53.332;9.860;2022-09-09T01:22:34;13.50;99.90
2523;DHT22;1272;53.332;9.860;2022-09-09T01:25:13;13.40;99.90
2523;DHT22;1272;53.332;9.860;2022-09-09T01:27:43;13.30;99.90
2523;DHT22;1272;53.332;9.860;2022-09-09T01:30:14;13.40;99.90
2523;DHT22;1272;53.332;9.860;2022-09-09T01:32:49;13.40;99.90
2523;DHT22;1272;53.332;9.860;2022-09-09T01:37:51;13.40;99.90
2523;DHT22;1272;53.332;9.860;2022-09-09T01:40:17;13.40;99.90
2523;DHT22;1272;53.332;9.860;2022-09-09T01:42:43;13.40;99.90
2523;DHT22;1272;53.332;9.860;2022-09-09T01:45:09;13.40;99.90
2523;DHT22;1272;53.332;9.860;2022-09-09T01:47:35;13.30;99.90
2523;DHT22;1272;53.332;9.860;2022-09-09T01:50:02;13.30;99.90
2523;DHT22;1272;53.332;9.860;2022-09-09T01:52:29;13.20;99.90
2523;DHT22;1272;53.332;9.860;2022-09-09T01:54:55;13.20;99.90
2523;DHT22;1272;53.332;9.860;2022-09-09T01:57:26;13.20;99.90
2523;DHT22;1272;53.332;9.860;2022-09-09T02:00:08;13.20;99.90
2523;DHT22;1272;53.332;9.860;2022-09-09T02:07:59;13.20;99.90
2523;DHT22;1272;53.332;9.860;2022-09-09T02:10:34;13.20;99.90
2523;DHT22;1272;53.332;9.860;2022-09-09T02:13:21;13.10;99.90
2523;DHT22;1272;53.332;9.860;2022-09-09T02:18:24;13.20;99.90
2523;DHT22;1272;53.332;9.860;2022-09-09T02:20:51;13.20;99.90
2523;DHT22;1272;53.332;9.860;2022-09-09T02:23:17;13.20;99.90
2523;DHT22;1272;53.332;9.860;2022-09-09T02:25:44;13.10;99.90
2523;DHT22;1272;53.332;9.860;2022-09-09T02:28:12;13.20;99.90
2523;DHT22;1272;53.332;9.860;2022-09-09T02:30:40;13.20;99.90
2523;DHT22;1272;53.332;9.860;2022-09-09T02:33:08;13.10;99.90
2523;DHT22;1272;53.332;9.860;2022-09-09T02:35:37;13.10;99.90
2523;DHT22;1272;53.332;9.860;2022-09-09T02:38:07;13.10;99.90
2523;DHT22;1272;53.332;9.860;2022-09-09T02:40:34;13.00;99.90
2523;DHT22;1272;53.332;9.860;2022-09-09T02:43:00;13.00;99.90
2523;DHT22;1272;53.332;9.860;2022-09-09T02:45:33;12.90;99.90
2523;DHT22;1272;53.332;9.860;2022-09-09T02:50:35;12.90;99.90
2523;DHT22;1272;53.332;9.860;2022-09-09T02:53:16;12.90;99.90
2523;DHT22;1272;53.332;9.860;2022-09-09T02:58:17;12.80;99.90
2523;DHT22;1272;53.332;9.860;2022-09-09T03:00:48;12.80;99.90
2523;DHT22;1272;53.332;9.860;2022-09-09T03:03:15;12.80;99.90
2523;DHT22;1272;53.332;9.860;2022-09-09T03:05:42;12.80;99.90
2523;DHT22;1272;53.332;9.860;2022-09-09T03:08:08;12.70;99.90
2523;DHT22;1272;53.332;9.860;2022-09-09T03:10:34;12.80;99.90
2523;DHT22;1272;53.332;9.860;2022-09-09T03:13:00;12.80;99.90
2523;DHT22;1272;53.332;9.860;2022-09-09T03:15:26;12.70;99.90
2523;DHT22;1272;53.332;9.860;2022-09-09T03:17:55;12.70;99.90
2523;DHT22;1272;53.332;9.860;2022-09-09T03:20:26;12.60;99.90
2523;DHT22;1272;53.332;9.860;2022-09-09T03:22:53;12.60;99.90
2523;DHT22;1272;53.332;9.860;2022-09-09T03:25:19;12.50;99.90
2523;DHT22;1272;53.332;9.860;2022-09-09T03:27:44;12.50;99.90
2523;DHT22;1272;53.332;9.860;2022-09-09T03:30:10;12.50;99.90
2523;DHT22;1272;53.332;9.860;2022-09-09T03:32:36;12.50;99.90
2523;DHT22;1272;53.332;9.860;2022-09-09T03:35:02;12.50;99.90
2523;DHT22;1272;53.332;9.860;2022-09-09T03:37:28;12.50;99.90
2523;DHT22;1272;53.332;9.860;2022-09-09T03:39:53;12.50;99.90
2523;DHT22;1272;53.332;9.860;2022-09-09T03:42:22;12.50;99.90
2523;DHT22;1272;53.332;9.860;2022-09-09T03:44:48;12.50;99.90
2523;DHT22;1272;53.332;9.860;2022-09-09T03:47:19;12.50;99.90
2523;DHT22;1272;53.332;9.860;2022-09-09T03:49:45;12.50;99.90
2523;DHT22;1272;53.332;9.860;2022-09-09T03:52:11;12.50;99.90
2523;DHT22;1272;53.332;9.860;2022-09-09T03:54:37;12.50;99.90
2523;DHT22;1272;53.332;9.860;2022-09-09T03:57:03;12.50;99.90
2523;DHT22;1272;53.332;9.860;2022-09-09T03:59:30;12.40;99.90
2523;DHT22;1272;53.332;9.860;2022-09-09T04:01:55;12.40;99.90
2523;DHT22;1272;53.332;9.860;2022-09-09T04:04:22;12.50;99.90
2523;DHT22;1272;53.332;9.860;2022-09-09T04:06:48;12.50;99.90
2523;DHT22;1272;53.332;9.860;2022-09-09T04:09:14;12.50;99.90
2523;DHT22;1272;53.332;9.860;2022-09-09T04:11:40;12.50;99.90
2523;DHT22;1272;53.332;9.860;2022-09-09T04:14:06;12.60;99.90
2523;DHT22;1272;53.332;9.860;2022-09-09T04:16:32;12.60;99.90
2523;DHT22;1272;53.332;9.860;2022-09-09T04:18:58;12.60;99.90
2523;DHT22;1272;53.332;9.860;2022-09-09T04:21:25;12.60;99.90
2523;DHT22;1272;53.332;9.860;2022-09-09T04:23:51;12.60;99.90
2523;DHT22;1272;53.332;9.860;2022-09-09T04:26:17;12.60;99.90
2523;DHT22;1272;53.332;9.860;2022-09-09T04:28:43;12.50;99.90
2523;DHT22;1272;53.332;9.860;2022-09-09T04:31:17;12.60;99.90
2523;DHT22;1272;53.332;9.860;2022-09-09T04:33:44;12.60;99.90
2523;DHT22;1272;53.332;9.860;2022-09-09T04:36:09;12.50;99.90
2523;DHT22;1272;53.332;9.860;2022-09-09T04:38:35;12.50;99.90
2523;DHT22;1272;53.332;9.860;2022-09-09T04:41:01;12.50;99.90
2523;DHT22;1272;53.332;9.860;2022-09-09T04:43:27;12.40;99.90
2523;DHT22;1272;53.332;9.860;2022-09-09T04:45:53;12.40;99.90
2523;DHT22;1272;53.332;9.860;2022-09-09T04:48:20;12.40;99.90
2523;DHT22;1272;53.332;9.860;2022-09-09T04:51:03;12.30;99.90
2523;DHT22;1272;53.332;9.860;2022-09-09T04:53:30;12.30;99.90
2523;DHT22;1272;53.332;9.860;2022-09-09T04:56:07;12.30;99.90
2523;DHT22;1272;53.332;9.860;2022-09-09T04:58:36;12.30;99.90
2523;DHT22;1272;53.332;9.860;2022-09-09T05:01:13;12.30;99.90
2523;DHT22;1272;53.332;9.860;2022-09-09T05:03:39;12.30;99.90
2523;DHT22;1272;53.332;9.860;2022-09-09T05:06:16;12.30;99.90
2523;DHT22;1272;53.332;9.860;2022-09-09T05:08:43;12.30;99.90
2523;DHT22;1272;53.332;9.860;2022-09-09T05:11:16;12.30;99.90
2523;DHT22;1272;53.332;9.860;2022-09-09T05:13:42;12.30;99.90
2523;DHT22;1272;53.332;9.860;2022-09-09T05:16:08;12.30;99.90
2523;DHT22;1272;53.332;9.860;2022-09-09T05:18:37;12.30;99.90
2523;DHT22;1272;53.332;9.860;2022-09-09T05:21:03;12.40;99.90
2523;DHT22;1272;53.332;9.860;2022-09-09T05:23:28;12.40;99.90
2523;DHT22;1272;53.332;9.860;2022-09-09T05:25:58;12.50;99.90
2523;DHT22;1272;53.332;9.860;2022-09-09T05:28:27;12.60;99.90
2523;DHT22;1272;53.332;9.860;2022-09-09T05:30:59;12.70;99.90
2523;DHT22;1272;53.332;9.860;2022-09-09T05:33:26;12.70;99.90
2523;DHT22;1272;53.332;9.860;2022-09-09T05:36:00;12.80;99.90
2523;DHT22;1272;53.332;9.860;2022-09-09T05:38:28;12.80;99.90
2523;DHT22;1272;53.332;9.860;2022-09-09T05:40:54;12.90;99.90
2523;DHT22;1272;53.332;9.860;2022-09-09T05:43:22;12.90;99.90
2523;DHT22;1272;53.332;9.860;2022-09-09T05:45:48;13.00;99.90
2523;DHT22;1272;53.332;9.860;2022-09-09T05:48:17;13.10;99.90
2523;DHT22;1272;53.332;9.860;2022-09-09T05:50:43;13.10;99.90
2523;DHT22;1272;53.332;9.860;2022-09-09T05:53:10;13.20;99.90
2523;DHT22;1272;53.332;9.860;2022-09-09T05:55:36;13.20;99.90
2523;DHT22;1272;53.332;9.860;2022-09-09T05:58:02;13.30;99.90
2523;DHT22;1272;53.332;9.860;2022-09-09T06:00:28;13.40;99.90
2523;DHT22;1272;53.332;9.860;2022-09-09T06:02:54;13.50;99.90
2523;DHT22;1272;53.332;9.860;2022-09-09T06:05:20;13.50;99.90
2523;DHT22;1272;53.332;9.860;2022-09-09T06:07:48;13.60;99.90
2523;DHT22;1272;53.332;9.860;2022-09-09T06:10:13;13.60;99.90
2523;DHT22;1272;53.332;9.860;2022-09-09T06:12:39;13.70;99.90
2523;DHT22;1272;53.332;9.860;2022-09-09T06:15:05;13.80;99.90
2523;DHT22;1272;53.332;9.860;2022-09-09T06:17:31;13.80;99.90
2523;DHT22;1272;53.332;9.860;2022-09-09T06:19:57;13.90;99.90
2523;DHT22;1272;53.332;9.860;2022-09-09T06:22:23;13.90;99.90
2523;DHT22;1272;53.332;9.860;2022-09-09T06:24:49;14.00;99.90
2523;DHT22;1272;53.332;9.860;2022-09-09T06:27:16;14.00;99.90
2523;DHT22;1272;53.332;9.860;2022-09-09T06:29:42;14.10;99.90
2523;DHT22;1272;53.332;9.860;2022-09-09T06:32:07;14.20;99.90
2523;DHT22;1272;53.332;9.860;2022-09-09T06:34:34;14.20;99.90
2523;DHT22;1272;53.332;9.860;2022-09-09T06:37:01;14.30;99.90
2523;DHT22;1272;53.332;9.860;2022-09-09T06:39:26;14.40;99.90
2523;DHT22;1272;53.332;9.860;2022-09-09T06:41:52;14.40;99.90
2523;DHT22;1272;53.332;9.860;2022-09-09T06:44:19;14.50;99.90
2523;DHT22;1272;53.332;9.860;2022-09-09T06:46:45;14.60;99.90
2523;DHT22;1272;53.332;9.860;2022-09-09T06:49:13;14.70;99.90
2523;DHT22;1272;53.332;9.860;2022-09-09T06:51:39;14.70;99.90
2523;DHT22;1272;53.332;9.860;2022-09-09T06:54:08;14.70;99.90
2523;DHT22;1272;53.332;9.860;2022-09-09T06:56:36;14.70;99.90
2523;DHT22;1272;53.332;9.860;2022-09-09T06:59:04;14.80;99.90
2523;DHT22;1272;53.332;9.860;2022-09-09T07:01:33;14.80;99.90
2523;DHT22;1272;53.332;9.860;2022-09-09T07:03:59;14.80;99.90
2523;DHT22;1272;53.332;9.860;2022-09-09T07:06:31;14.90;99.90
2523;DHT22;1272;53.332;9.860;2022-09-09T07:09:06;14.90;99.90
2523;DHT22;1272;53.332;9.860;2022-09-09T07:11:43;14.90;99.90
2523;DHT22;1272;53.332;9.860;2022-09-09T07:14:09;15.00;99.90
2523;DHT22;1272;53.332;9.860;2022-09-09T07:16:38;15.00;99.90
2523;DHT22;1272;53.332;9.860;2022-09-09T07:19:04;15.00;99.90
2523;DHT22;1272;53.332;9.860;2022-09-09T07:21:31;15.10;99.90
2523;DHT22;1272;53.332;9.860;2022-09-09T07:23:57;15.20;99.90
2523;DHT22;1272;53.332;9.860;2022-09-09T07:26:25;15.30;99.90
2523;DHT22;1272;53.332;9.860;2022-09-09T07:28:52;15.30;99.90
2523;DHT22;1272;53.332;9.860;2022-09-09T07:31:22;15.40;99.90
2523;DHT22;1272;53.332;9.860;2022-09-09T07:33:48;15.40;99.90
2523;DHT22;1272;53.332;9.860;2022-09-09T07:36:23;15.50;99.90
2523;DHT22;1272;53.332;9.860;2022-09-09T07:38:53;15.60;99.90
2523;DHT22;1272;53.332;9.860;2022-09-09T07:41:22;15.60;99.90
2523;DHT22;1272;53.332;9.860;2022-09-09T07:43:49;15.70;99.90
2523;DHT22;1272;53.332;9.860;2022-09-09T07:46:17;15.80;99.90
2523;DHT22;1272;53.332;9.860;2022-09-09T07:48:46;15.90;99.90
2523;DHT22;1272;53.332;9.860;2022-09-09T07:51:15;16.00;99.90
2523;DHT22;1272;53.332;9.860;2022-09-09T07:53:45;16.10;99.90
2523;DHT22;1272;53.332;9.860;2022-09-09T07:56:15;16.10;99.90
2523;DHT22;1272;53.332;9.860;2022-09-09T07:58:44;16.00;99.90
2523;DHT22;1272;53.332;9.860;2022-09-09T08:03:52;16.20;99.90
2523;DHT22;1272;53.332;9.860;2022-09-09T08:06:18;16.20;99.90
2523;DHT22;1272;53.332;9.860;2022-09-09T08:08:43;16.40;99.90
2523;DHT22;1272;53.332;9.860;2022-09-09T08:11:12;16.40;99.90
2523;DHT22;1272;53.332;9.860;2022-09-09T08:13:39;16.50;99.90
2523;DHT22;1272;53.332;9.860;2022-09-09T08:18:35;16.70;99.90
2523;DHT22;1272;53.332;9.860;2022-09-09T08:21:13;16.70;99.90
2523;DHT22;1272;53.332;9.860;2022-09-09T08:23:40;16.90;99.90
2523;DHT22;1272;53.332;9.860;2022-09-09T08:28:38;17.10;99.90
2523;DHT22;1272;53.332;9.860;2022-09-09T08:31:13;17.20;99.90
2523;DHT22;1272;53.332;9.860;2022-09-09T08:33:40;17.30;99.90
2523;DHT22;1272;53.332;9.860;2022-09-09T08:36:08;17.50;99.90
2523;DHT22;1272;53.332;9.860;2022-09-09T08:38:35;17.60;99.90
2523;DHT22;1272;53.332;9.860;2022-09-09T08:43:33;17.80;99.90
2523;DHT22;1272;53.332;9.860;2022-09-09T08:46:26;17.90;99.90
2523;DHT22;1272;53.332;9.860;2022-09-09T08:51:39;18.10;99.90
2523;DHT22;1272;53.332;9.860;2022-09-09T08:54:06;18.10;99.90
2523;DHT22;1272;53.332;9.860;2022-09-09T08:56:32;18.10;99.90
2523;DHT22;1272;53.332;9.860;2022-09-09T08:59:00;18.10;14.00
2523;DHT22;1272;53.332;9.860;2022-09-09T09:01:56;18.20;43.30
2523;DHT22;1272;53.332;9.860;2022-09-09T09:12:42;18.30;3.70
2523;DHT22;1272;53.332;9.860;2022-09-09T09:15:21;18.40;1.00
2523;DHT22;1272;53.332;9.860;2022-09-09T09:17:49;18.40;1.00
2523;DHT22;1272;53.332;9.860;2022-09-09T09:20:16;18.60;1.00
2523;DHT22;1272;53.332;9.860;2022-09-09T09:22:51;18.50;1.00
2523;DHT22;1272;53.332;9.860;2022-09-09T09:25:21;18.60;1.00
2523;DHT22;1272;53.332;9.860;2022-09-09T09:28:07;18.60;1.00
2523;DHT22;1272;53.332;9.860;2022-09-09T09:33:51;18.60;1.00
2523;DHT22;1272;53.332;9.860;2022-09-09T09:36:19;18.70;1.00
2523;DHT22;1272;53.332;9.860;2022-09-09T09:39:21;18.70;1.00
2523;DHT22;1272;53.332;9.860;2022-09-09T09:41:47;18.80;1.00
2523;DHT22;1272;53.332;9.860;2022-09-09T09:46:53;19.00;1.00
2523;DHT22;1272;53.332;9.860;2022-09-09T09:49:19;19.10;99.90
2523;DHT22;1272;53.332;9.860;2022-09-09T09:51:44;19.20;70.20
2523;DHT22;1272;53.332;9.860;2022-09-09T09:54:27;19.50;99.90
2523;DHT22;1272;53.332;9.860;2022-09-09T09:56:54;19.80;99.90
2523;DHT22;1272;53.332;9.860;2022-09-09T10:01:52;20.00;1.00
2523;DHT22;1272;53.332;9.860;2022-09-09T10:04:22;20.10;1.00
2523;DHT22;1272;53.332;9.860;2022-09-09T10:06:49;20.00;99.90
2523;DHT22;1272;53.332;9.860;2022-09-09T10:09:30;20.10;99.90
2523;DHT22;1272;53.332;9.860;2022-09-09T10:12:06;20.10;53.40
2523;DHT22;1272;53.332;9.860;2022-09-09T10:15:00;20.20;99.90
2523;DHT22;1272;53.332;9.860;2022-09-09T10:17:41;20.10;1.00
2523;DHT22;1272;53.332;9.860;2022-09-09T10:20:30;20.10;1.00
2523;DHT22;1272;53.332;9.860;2022-09-09T10:26:19;20.30;99.90
2523;DHT22;1272;53.332;9.860;2022-09-09T10:37:04;20.80;96.60
2523;DHT22;1272;53.332;9.860;2022-09-09T10:39:39;20.80;1.00
2523;DHT22;1272;53.332;9.860;2022-09-09T10:42:16;20.90;99.90
2523;DHT22;1272;53.332;9.860;2022-09-09T10:50:41;21.10;1.00
2523;DHT22;1272;53.332;9.860;2022-09-09T10:53:28;21.10;1.00
2523;DHT22;1272;53.332;9.860;2022-09-09T10:56:09;21.00;99.90
2523;DHT22;1272;53.332;9.860;2022-09-09T10:58:49;20.90;99.90
2523;DHT22;1272;53.332;9.860;2022-09-09T11:01:36;20.80;99.90
2523;DHT22;1272;53.332;9.860;2022-09-09T11:04:19;20.80;99.90
2523;DHT22;1272;53.332;9.860;2022-09-09T11:06:52;20.80;99.90
2523;DHT22;1272;53.332;9.860;2022-09-09T11:09:23;20.90;99.90
2523;DHT22;1272;53.332;9.860;2022-09-09T11:11:54;21.20;99.90
2523;DHT22;1272;53.332;9.860;2022-09-09T11:17:26;21.40;99.90
2523;DHT22;1272;53.332;9.860;2022-09-09T11:19:55;21.50;30.40
2523;DHT22;1272;53.332;9.860;2022-09-09T11:22:34;21.60;1.00
2523;DHT22;1272;53.332;9.860;2022-09-09T11:25:32;21.70;99.90
2523;DHT22;1272;53.332;9.860;2022-09-09T11:44:41;22.10;99.90
2523;DHT22;1272;53.332;9.860;2022-09-09T11:49:47;21.80;99.90
2523;DHT22;1272;53.332;9.860;2022-09-09T11:52:34;21.70;99.90
2523;DHT22;1272;53.332;9.860;2022-09-09T11:55:27;21.70;99.90
2523;DHT22;1272;53.332;9.860;2022-09-09T11:58:21;21.60;99.90
2523;DHT22;1272;53.332;9.860;2022-09-09T12:00:48;21.90;99.90
2523;DHT22;1272;53.332;9.860;2022-09-09T12:06:11;22.00;99.90
2523;DHT22;1272;53.332;9.860;2022-09-09T12:08:46;22.00;99.90
2523;DHT22;1272;53.332;9.860;2022-09-09T12:11:24;21.80;99.90
2523;DHT22;1272;53.332;9.860;2022-09-09T12:13:58;21.60;99.90
2523;DHT22;1272;53.332;9.860;2022-09-09T12:16:36;21.30;1.00
2523;DHT22;1272;53.332;9.860;2022-09-09T12:19:23;21.20;1.00
2523;DHT22;1272;53.332;9.860;2022-09-09T12:22:04;21.00;1.00
2523;DHT22;1272;53.332;9.860;2022-09-09T12:24:47;20.80;1.00
2523;DHT22;1272;53.332;9.860;2022-09-09T12:30:04;20.60;99.90
2523;DHT22;1272;53.332;9.860;2022-09-09T12:32:30;20.40;52.20
2523;DHT22;1272;53.332;9.860;2022-09-09T12:37:48;19.90;99.90
2523;DHT22;1272;53.332;9.860;2022-09-09T12:40:21;19.70;99.90
2523;DHT22;1272;53.332;9.860;2022-09-09T12:42:46;19.40;99.90
2523;DHT22;1272;53.332;9.860;2022-09-09T12:45:23;19.00;1.00
2523;DHT22;1272;53.332;9.860;2022-09-09T12:52:52;18.70;99.90
2523;DHT22;1272;53.332;9.860;2022-09-09T12:55:22;18.60;99.90
2523;DHT22;1272;53.332;9.860;2022-09-09T12:57:50;18.60;99.90
2523;DHT22;1272;53.332;9.860;2022-09-09T13:00:22;18.60;99.90
2523;DHT22;1272;53.332;9.860;2022-09-09T13:02:54;18.50;99.90
2523;DHT22;1272;53.332;9.860;2022-09-09T13:05:34;18.50;99.90
2523;DHT22;1272;53.332;9.860;2022-09-09T13:08:09;18.50;99.90
2523;DHT22;1272;53.332;9.860;2022-09-09T13:11:03;18.40;99.90
2523;DHT22;1272;53.332;9.860;2022-09-09T13:13:41;18.40;99.90
2523;DHT22;1272;53.332;9.860;2022-09-09T13:16:28;18.20;97.50
2523;DHT22;1272;53.332;9.860;2022-09-09T13:19:00;18.10;99.90
2523;DHT22;1272;53.332;9.860;2022-09-09T13:21:38;18.00;99.90
2523;DHT22;1272;53.332;9.860;2022-09-09T13:24:33;18.00;99.90
2523;DHT22;1272;53.332;9.860;2022-09-09T13:27:04;18.00;99.90
2523;DHT22;1272;53.332;9.860;2022-09-09T13:29:31;18.00;99.90
2523;DHT22;1272;53.332;9.860;2022-09-09T13:32:04;17.90;99.90
2523;DHT22;1272;53.332;9.860;2022-09-09T13:34:33;17.90;99.90
2523;DHT22;1272;53.332;9.860;2022-09-09T13:37:02;17.90;99.90
2523;DHT22;1272;53.332;9.860;2022-09-09T13:39:35;17.80;99.90
2523;DHT22;1272;53.332;9.860;2022-09-09T13:42:02;17.70;99.90
2523;DHT22;1272;53.332;9.860;2022-09-09T13:44:38;17.70;99.90
2523;DHT22;1272;53.332;9.860;2022-09-09T13:47:05;17.60;99.90
2523;DHT22;1272;53.332;9.860;2022-09-09T13:49:32;17.50;99.90
2523;DHT22;1272;53.332;9.860;2022-09-09T13:52:10;17.50;99.90
2523;DHT22;1272;53.332;9.860;2022-09-09T13:54:36;17.40;99.90
2523;DHT22;1272;53.332;9.860;2022-09-09T13:57:02;17.30;99.90
2523;DHT22;1272;53.332;9.860;2022-09-09T13:59:29;17.30;99.90
2523;DHT22;1272;53.332;9.860;2022-09-09T14:01:55;17.10;99.90
2523;DHT22;1272;53.332;9.860;2022-09-09T14:04:21;17.00;99.90
2523;DHT22;1272;53.332;9.860;2022-09-09T14:06:48;17.00;99.90
2523;DHT22;1272;53.332;9.860;2022-09-09T14:09:16;17.00;99.90
2523;DHT22;1272;53.332;9.860;2022-09-09T14:11:42;16.90;99.90
2523;DHT22;1272;53.332;9.860;2022-09-09T14:14:08;16.90;99.90
2523;DHT22;1272;53.332;9.860;2022-09-09T14:16:34;17.00;99.90
2523;DHT22;1272;53.332;9.860;2022-09-09T14:19:00;17.00;99.90
2523;DHT22;1272;53.332;9.860;2022-09-09T14:21:27;16.90;99.90
2523;DHT22;1272;53.332;9.860;2022-09-09T14:23:53;16.90;99.90
2523;DHT22;1272;53.332;9.860;2022-09-09T14:26:20;16.90;99.90
2523;DHT22;1272;53.332;9.860;2022-09-09T14:28:47;16.90;99.90
2523;DHT22;1272;53.332;9.860;2022-09-09T14:31:13;16.90;99.90
2523;DHT22;1272;53.332;9.860;2022-09-09T14:33:40;16.90;99.90
2523;DHT22;1272;53.332;9.860;2022-09-09T14:36:06;16.80;99.90
2523;DHT22;1272;53.332;9.860;2022-09-09T14:38:37;16.80;99.90
2523;DHT22;1272;53.332;9.860;2022-09-09T14:41:10;16.70;99.90
2523;DHT22;1272;53.332;9.860;2022-09-09T14:43:39;16.60;99.90
2523;DHT22;1272;53.332;9.860;2022-09-09T14:46:06;16.70;99.90
2523;DHT22;1272;53.332;9.860;2022-09-09T14:48:32;16.70;99.90
2523;DHT22;1272;53.332;9.860;2022-09-09T14:51:06;16.70;99.90
2523;DHT22;1272;53.332;9.860;2022-09-09T14:53:31;16.80;99.90
2523;DHT22;1272;53.332;9.860;2022-09-09T14:56:09;16.90;99.90
2523;DHT22;1272;53.332;9.860;2022-09-09T14:58:35;16.90;99.90
2523;DHT22;1272;53.332;9.860;2022-09-09T15:01:09;17.00;99.90
2523;DHT22;1272;53.332;9.860;2022-09-09T15:03:36;17.00;99.90
2523;DHT22;1272;53.332;9.860;2022-09-09T15:06:11;17.00;99.90
2523;DHT22;1272;53.332;9.860;2022-09-09T15:08:38;17.00;99.90
2523;DHT22;1272;53.332;9.860;2022-09-09T15:11:05;17.00;99.90
2523;DHT22;1272;53.332;9.860;2022-09-09T15:13:33;16.90;99.90
2523;DHT22;1272;53.332;9.860;2022-09-09T15:16:09;16.90;99.90
2523;DHT22;1272;53.332;9.860;2022-09-09T15:18:35;16.90;99.90
2523;DHT22;1272;53.332;9.860;2022-09-09T15:21:03;17.00;99.90
2523;DHT22;1272;53.332;9.860;2022-09-09T15:23:34;17.10;99.90
2523;DHT22;1272;53.332;9.860;2022-09-09T15:26:00;17.10;99.90
2523;DHT22;1272;53.332;9.860;2022-09-09T15:28:26;17.20;99.90
2523;DHT22;1272;53.332;9.860;2022-09-09T15:30:53;17.10;99.90
2523;DHT22;1272;53.332;9.860;2022-09-09T15:33:19;17.20;99.90
2523;DHT22;1272;53.332;9.860;2022-09-09T15:35:45;17.30;99.90
2523;DHT22;1272;53.332;9.860;2022-09-09T15:38:11;17.30;99.90
2523;DHT22;1272;53.332;9.860;2022-09-09T15:40:39;17.40;99.90
2523;DHT22;1272;53.332;9.860;2022-09-09T15:43:06;17.60;33.90
2523;DHT22;1272;53.332;9.860;2022-09-09T15:45:32;17.70;10.30
2523;DHT22;1272;53.332;9.860;2022-09-09T15:47:59;17.80;1.00
2523;DHT22;1272;53.332;9.860;2022-09-09T15:50:25;17.80;99.90
2523;DHT22;1272;53.332;9.860;2022-09-09T15:52:51;17.80;99.90
2523;DHT22;1272;53.332;9.860;2022-09-09T15:55:19;17.90;1.00
2523;DHT22;1272;53.332;9.860;2022-09-09T15:57:46;17.90;1.00
2523;DHT22;1272;53.332;9.860;2022-09-09T16:00:12;17.70;1.00
2523;DHT22;1272;53.332;9.860;2022-09-09T16:02:39;17.60;51.60
2523;DHT22;1272;53.332;9.860;2022-09-09T16:05:05;17.60;99.90
2523;DHT22;1272;53.332;9.860;2022-09-09T16:07:31;17.60;7.60
2523;DHT22;1272;53.332;9.860;2022-09-09T16:09:57;17.70;1.00
2523;DHT22;1272;53.332;9.860;2022-09-09T16:12:23;17.60;1.00
2523;DHT22;1272;53.332;9.860;2022-09-09T16:14:50;17.60;1.00
2523;DHT22;1272;53.332;9.860;2022-09-09T16:17:15;17.60;99.90
2523;DHT22;1272;53.332;9.860;2022-09-09T16:19:41;17.40;1.00
2523;DHT22;1272;53.332;9.860;2022-09-09T16:22:07;17.40;1.00
2523;DHT22;1272;53.332;9.860;2022-09-09T16:24:33;17.40;1.00
2523;DHT22;1272;53.332;9.860;2022-09-09T16:26:59;17.40;1.00
2523;DHT22;1272;53.332;9.860;2022-09-09T16:29:25;17.40;1.00
2523;DHT22;1272;53.332;9.860;2022-09-09T16:31:53;17.30;1.00
2523;DHT22;1272;53.332;9.860;2022-09-09T16:34:19;17.30;1.00
2523;DHT22;1272;53.332;9.860;2022-09-09T16:36:46;17.30;1.00
2523;DHT22;1272;53.332;9.860;2022-09-09T16:39:17;17.20;1.00
2523;DHT22;1272;53.332;9.860;2022-09-09T16:41:45;17.20;5.40
2523;DHT22;1272;53.332;9.860;2022-09-09T16:44:12;17.20;1.00
2523;DHT22;1272;53.332;9.860;2022-09-09T16:46:40;17.10;10.90
2523;DHT22;1272;53.332;9.860;2022-09-09T16:49:09;17.10;33.10
2523;DHT22;1272;53.332;9.860;2022-09-09T16:51:44;17.00;26.30
2523;DHT22;1272;53.332;9.860;2022-09-09T16:54:11;17.00;11.30
2523;DHT22;1272;53.332;9.860;2022-09-09T16:56:39;17.00;1.80
2523;DHT22;1272;53.332;9.860;2022-09-09T16:59:11;16.90;30.80
2523;DHT22;1272;53.332;9.860;2022-09-09T17:01:39;16.80;58.30
2523;DHT22;1272;53.332;9.860;2022-09-09T17:04:20;16.70;99.90
2523;DHT22;1272;53.332;9.860;2022-09-09T17:06:47;16.70;97.70
2523;DHT22;1272;53.332;9.860;2022-09-09T17:09:14;16.60;99.90
2523;DHT22;1272;53.332;9.860;2022-09-09T17:11:40;16.60;99.90
2523;DHT22;1272;53.332;9.860;2022-09-09T17:14:13;16.60;99.90
2523;DHT22;1272;53.332;9.860;2022-09-09T17:16:40;16.50;99.90
2523;DHT22;1272;53.332;9.860;2022-09-09T17:19:06;16.40;99.90
2523;DHT22;1272;53.332;9.860;2022-09-09T17:21:33;16.30;99.90
2523;DHT22;1272;53.332;9.860;2022-09-09T17:24:00;16.30;99.90
2523;DHT22;1272;53.332;9.860;2022-09-09T17:26:28;16.30;99.90
2523;DHT22;1272;53.332;9.860;2022-09-09T17:28:55;16.20;99.90
2523;DHT22;1272;53.332;9.860;2022-09-09T17:31:23;16.20;99.90
2523;DHT22;1272;53.332;9.860;2022-09-09T17:33:51;16.20;99.90
2523;DHT22;1272;53.332;9.860;2022-09-09T17:36:21;16.20;99.90
2523;DHT22;1272;53.332;9.860;2022-09-09T17:38:48;16.10;99.90
2523;DHT22;1272;53.332;9.860;2022-09-09T17:41:23;16.20;99.90
2523;DHT22;1272;53.332;9.860;2022-09-09T17:43:50;16.20;99.90
2523;DHT22;1272;53.332;9.860;2022-09-09T17:46:23;16.10;99.90
2523;DHT22;1272;53.332;9.860;2022-09-09T17:48:56;16.00;99.90
2523;DHT22;1272;53.332;9.860;2022-09-09T17:51:24;15.90;99.90
2523;DHT22;1272;53.332;9.860;2022-09-09T17:53:53;15.90;99.90
2523;DHT22;1272;53.332;9.860;2022-09-09T17:56:21;15.80;99.90
2523;DHT22;1272;53.332;9.860;2022-09-09T17:58:52;15.80;99.90
2523;DHT22;1272;53.332;9.860;2022-09-09T18:01:30;15.80;99.90
2523;DHT22;1272;53.332;9.860;2022-09-09T18:04:00;15.70;99.90
2523;DHT22;1272;53.332;9.860;2022-09-09T18:06:30;15.60;99.90
2523;DHT22;1272;53.332;9.860;2022-09-09T18:08:58;15.40;99.90
2523;DHT22;1272;53.332;9.860;2022-09-09T18:11:28;15.30;99.90
2523;DHT22;1272;53.332;9.860;2022-09-09T18:13:59;15.30;99.90
2523;DHT22;1272;53.332;9.860;2022-09-09T18:16:26;15.20;99.90
2523;DHT22;1272;53.332;9.860;2022-09-09T18:18:54;15.20;99.90
2523;DHT22;1272;53.332;9.860;2022-09-09T18:21:22;15.30;99.90
2523;DHT22;1272;53.332;9.860;2022-09-09T18:23:50;15.30;99.90
2523;DHT22;1272;53.332;9.860;2022-09-09T18:26:21;15.30;99.90
2523;DHT22;1272;53.332;9.860;2022-09-09T18:28:51;15.30;99.90
2523;DHT22;1272;53.332;9.860;2022-09-09T18:31:19;15.30;99.90